createdAt,value
2023-03-26T00:02:27.365Z,4.30
2023-03-26T00:06:10.301Z,4.80
2023-03-26T00:09:57.996Z,3.60
2023-03-26T00:13:47.197Z,3.70
2023-03-26T00:17:27.269Z,4.10
2023-03-26T00:21:07.747Z,4.90
2023-03-26T00:24:50.494Z,4.80
2023-03-26T00:28:32.211Z,4.80
2023-03-26T00:32:21.167Z,4.10
2023-03-26T00:36:10.405Z,3.70
2023-03-26T00:39:43.272Z,4.50
2023-03-26T00:43:32.128Z,4.80
2023-03-26T00:47:12.462Z,5.90
2023-03-26T00:50:35.432Z,4.20
2023-03-26T00:54:24.361Z,5.00
2023-03-26T00:57:56.622Z,5.70
2023-03-26T01:01:20.939Z,5.90
2023-03-26T01:05:22.207Z,4.60
2023-03-26T01:08:55.037Z,5.20
2023-03-26T01:12:12.301Z,5.10
2023-03-26T01:15:37.017Z,6.30
2023-03-26T01:19:10.428Z,6.20
2023-03-26T01:22:34.655Z,7.10
2023-03-26T01:26:18.645Z,7.10
2023-03-26T01:30:10.937Z,4.00
2023-03-26T01:34:02.728Z,6.40
2023-03-26T01:37:39.090Z,7.40
2023-03-26T01:41:13.733Z,3.80
2023-03-26T01:45:03.932Z,4.80
2023-03-26T01:48:19.831Z,4.90
2023-03-26T01:52:00.035Z,4.20
2023-03-26T01:55:09.800Z,2.80
2023-03-26T01:58:41.698Z,4.20
2023-03-26T02:02:29.562Z,6.30
2023-03-26T02:06:10.234Z,4.60
2023-03-26T02:09:52.594Z,3.70
2023-03-26T02:13:24.402Z,4.80
2023-03-26T02:16:50.360Z,4.00
2023-03-26T02:20:07.358Z,5.20
2023-03-26T02:23:39.303Z,4.10
2023-03-26T02:26:53.524Z,4.30
2023-03-26T02:30:25.180Z,4.70
2023-03-26T02:33:57.291Z,4.90
2023-03-26T02:37:15.919Z,3.60
2023-03-26T02:40:56.999Z,5.40
2023-03-26T02:44:24.112Z,2.50
2023-03-26T02:48:01.820Z,2.60
2023-03-26T02:51:35.024Z,3.20
2023-03-26T02:55:03.465Z,3.40
2023-03-26T02:58:42.187Z,3.60
2023-03-26T03:02:24.758Z,5.50
2023-03-26T03:06:13.810Z,2.50
2023-03-26T03:09:57.348Z,3.30
2023-03-26T03:13:29.482Z,2.40
2023-03-26T03:17:18.389Z,4.80
2023-03-26T03:20:57.239Z,3.90
2023-03-26T03:24:26.478Z,2.70
2023-03-26T03:28:15.301Z,3.30
2023-03-26T03:31:35.035Z,4.80
2023-03-26T03:35:12.865Z,4.90
2023-03-26T03:38:54.411Z,3.70
2023-03-26T03:42:43.220Z,4.30
2023-03-26T03:46:24.746Z,4.40
2023-03-26T03:49:43.116Z,3.70
2023-03-26T03:53:21.910Z,4.30
2023-03-26T03:56:47.639Z,4.10
2023-03-26T04:00:27.574Z,3.80
2023-03-26T04:04:19.356Z,3.10
2023-03-26T04:08:08.280Z,6.70
2023-03-26T04:11:46.135Z,6.10
2023-03-26T04:15:37.652Z,2.50
2023-03-26T04:19:08.422Z,3.90
2023-03-26T04:22:49.678Z,3.30
2023-03-26T04:26:38.479Z,3.70
2023-03-26T04:30:33.201Z,3.60
2023-03-26T04:34:15.545Z,2.20
2023-03-26T04:37:47.879Z,4.30
2023-03-26T04:41:37.370Z,3.90
2023-03-26T04:44:58.718Z,2.90
2023-03-26T04:48:28.638Z,3.90
2023-03-26T04:52:18.739Z,3.20
2023-03-26T04:56:28.875Z,2.90
2023-03-26T05:00:08.631Z,2.80
2023-03-26T05:03:57.628Z,2.10
2023-03-26T05:07:28.827Z,2.60
2023-03-26T05:10:59.962Z,3.40
2023-03-26T05:14:19.528Z,2.60
2023-03-26T05:18:08.414Z,2.20
2023-03-26T05:21:15.818Z,2.30
2023-03-26T05:24:54.785Z,2.20
2023-03-26T05:28:26.568Z,2.90
2023-03-26T05:32:14.805Z,2.30
2023-03-26T05:35:39.402Z,3.10
2023-03-26T05:39:28.287Z,1.50
2023-03-26T05:43:08.016Z,2.40
2023-03-26T05:46:43.671Z,2.80
2023-03-26T05:49:54.139Z,1.90
2023-03-26T05:53:22.054Z,2.10
2023-03-26T05:56:47.000Z,2.90
2023-03-26T06:00:35.031Z,3.60
2023-03-26T06:04:08.546Z,2.20
2023-03-26T06:07:18.901Z,2.90
2023-03-26T06:10:59.588Z,2.60
2023-03-26T06:14:41.746Z,1.70
2023-03-26T06:18:33.727Z,2.60
2023-03-26T06:22:21.665Z,2.20
2023-03-26T06:26:19.710Z,2.60
2023-03-26T06:29:51.763Z,3.70
2023-03-26T06:33:56.373Z,2.50
2023-03-26T06:37:13.648Z,5.30
2023-03-26T06:40:47.945Z,2.30
2023-03-26T06:44:28.616Z,3.20
2023-03-26T06:48:17.550Z,2.20
2023-03-26T06:51:45.013Z,2.10
2023-03-26T06:55:13.103Z,3.30
2023-03-26T06:58:52.913Z,2.40
2023-03-26T07:02:42.020Z,2.40
2023-03-26T07:06:03.432Z,2.50
2023-03-26T07:09:33.348Z,1.60
2023-03-26T07:13:00.758Z,1.60
2023-03-26T07:17:06.039Z,2.80
2023-03-26T07:20:55.335Z,3.40
2023-03-26T07:24:35.153Z,3.80
2023-03-26T07:28:40.253Z,4.50
2023-03-26T07:32:22.086Z,3.10
2023-03-26T07:36:24.618Z,5.60
2023-03-26T07:40:45.870Z,4.00
2023-03-26T07:45:02.907Z,2.60
2023-03-26T07:48:58.659Z,4.40
2023-03-26T07:53:00.586Z,6.00
2023-03-26T07:56:54.108Z,2.60
2023-03-26T08:00:35.450Z,5.90
2023-03-26T08:04:36.290Z,6.70
2023-03-26T08:08:21.362Z,2.90
2023-03-26T08:12:33.119Z,5.00
2023-03-26T08:16:22.726Z,3.60
2023-03-26T08:20:12.930Z,3.60
2023-03-26T08:24:02.075Z,3.60
2023-03-26T08:27:31.567Z,4.30
2023-03-26T08:31:12.710Z,5.10
2023-03-26T08:34:51.202Z,3.90
2023-03-26T08:38:30.323Z,4.60
2023-03-26T08:42:47.312Z,3.90
2023-03-26T08:46:28.016Z,5.50
2023-03-26T08:50:45.208Z,2.40
2023-03-26T08:54:26.931Z,3.90
2023-03-26T08:58:15.166Z,3.20
2023-03-26T09:02:20.684Z,3.20
2023-03-26T09:06:26.402Z,3.40
2023-03-26T09:10:15.512Z,2.10
2023-03-26T09:14:08.406Z,5.30
2023-03-26T09:17:25.319Z,6.80
2023-03-26T09:21:29.391Z,2.50
2023-03-26T09:25:15.952Z,1.80
2023-03-26T09:28:53.029Z,3.00
2023-03-26T09:32:39.474Z,3.50
2023-03-26T09:36:35.822Z,2.70
2023-03-26T09:40:34.538Z,2.40
2023-03-26T09:44:29.551Z,4.90
2023-03-26T09:48:01.570Z,2.80
2023-03-26T09:52:06.402Z,4.20
2023-03-26T09:55:48.672Z,4.30
2023-03-26T09:59:58.968Z,3.00
2023-03-26T10:03:42.084Z,2.40
2023-03-26T10:07:39.726Z,4.30
2023-03-26T10:11:33.593Z,26.30
2023-03-26T10:15:38.109Z,59.20
2023-03-26T10:19:42.748Z,29.20
2023-03-26T10:23:43.529Z,4.70
2023-03-26T10:27:38.934Z,10.90
2023-03-26T10:31:35.601Z,4.50
2023-03-26T10:35:20.152Z,2.50
2023-03-26T10:39:35.933Z,4.10
2023-03-26T10:43:24.812Z,2.50
2023-03-26T10:46:59.854Z,55.80
2023-03-26T10:51:04.331Z,6.90
2023-03-26T10:55:00.243Z,4.70
2023-03-26T10:58:49.083Z,3.60
2023-03-26T11:02:30.515Z,1.70
2023-03-26T11:06:24.963Z,4.50
2023-03-26T11:10:35.190Z,4.20
2023-03-26T11:14:35.597Z,2.00
2023-03-26T11:18:30.562Z,3.10
2023-03-26T11:22:39.414Z,2.00
2023-03-26T11:26:38.914Z,6.10
2023-03-26T11:30:23.324Z,20.20
2023-03-26T11:34:06.425Z,3.00
2023-03-26T11:37:40.264Z,4.90
2023-03-26T11:41:23.476Z,2.30
2023-03-26T11:45:23.290Z,3.60
2023-03-26T11:49:11.897Z,3.40
2023-03-26T11:53:02.036Z,2.90
2023-03-26T11:57:07.435Z,4.60
2023-03-26T12:00:50.127Z,2.10
2023-03-26T12:04:43.674Z,1.80
2023-03-26T12:08:11.624Z,2.00
2023-03-26T12:12:01.347Z,5.20
2023-03-26T12:15:15.152Z,93.00
2023-03-26T12:18:58.635Z,72.90
2023-03-26T12:22:47.779Z,50.10
2023-03-26T12:26:40.893Z,106.50
2023-03-26T12:30:33.454Z,28.70
2023-03-26T12:34:23.651Z,19.90
2023-03-26T12:38:14.964Z,8.30
2023-03-26T12:44:47.835Z,2.10
2023-03-26T12:47:26.480Z,3.80
2023-03-26T12:49:10.499Z,1.80
2023-03-26T12:52:56.164Z,6.70
2023-03-26T12:57:11.975Z,2.20
2023-03-26T13:01:20.622Z,2.50
2023-03-26T13:05:31.417Z,2.20
2023-03-26T13:09:45.294Z,3.20
2023-03-26T13:13:48.251Z,2.60
2023-03-26T13:17:47.602Z,5.10
2023-03-26T13:21:45.633Z,2.20
2023-03-26T13:25:40.443Z,3.90
2023-03-26T13:29:23.324Z,3.20
2023-03-26T13:33:10.742Z,4.30
2023-03-26T13:37:21.889Z,8.50
2023-03-26T13:41:22.462Z,4.60
2023-03-26T13:45:21.740Z,4.80
2023-03-26T13:49:13.460Z,4.00
2023-03-26T13:52:55.161Z,4.80
2023-03-26T13:56:51.267Z,6.70
2023-03-26T14:00:43.370Z,5.30
2023-03-26T14:04:31.299Z,5.30
2023-03-26T14:08:09.190Z,5.10
2023-03-26T14:12:22.313Z,4.70
2023-03-26T14:16:28.453Z,5.10
2023-03-26T14:20:16.562Z,5.80
2023-03-26T14:24:05.927Z,5.60
2023-03-26T14:27:36.917Z,5.10
2023-03-26T14:31:20.837Z,6.10
2023-03-26T14:35:26.629Z,10.80
2023-03-26T14:39:15.370Z,3.60
2023-03-26T14:43:10.685Z,6.70
2023-03-26T14:47:16.614Z,4.40
2023-03-26T14:51:12.464Z,5.90
2023-03-26T14:54:59.710Z,4.10
2023-03-26T14:58:51.649Z,5.10
2023-03-26T15:02:48.182Z,3.10
2023-03-26T15:06:29.135Z,35.40
2023-03-26T15:10:29.927Z,13.40
2023-03-26T15:14:22.272Z,6.60
2023-03-26T15:18:19.315Z,8.40
2023-03-26T15:22:10.264Z,6.00
2023-03-26T15:26:04.131Z,4.30
2023-03-26T15:29:47.205Z,7.70
2023-03-26T15:33:44.132Z,5.20
2023-03-26T15:37:16.447Z,12.60
2023-03-26T15:40:43.312Z,5.90
2023-03-26T15:44:23.396Z,5.60
2023-03-26T15:48:14.915Z,7.40
2023-03-26T15:52:03.010Z,6.30
2023-03-26T15:56:05.235Z,9.10
2023-03-26T16:00:02.436Z,7.40
2023-03-26T16:03:52.824Z,8.60
2023-03-26T16:07:43.209Z,8.70
2023-03-26T16:11:30.882Z,9.70
2023-03-26T16:14:57.406Z,10.50
2023-03-26T16:18:36.480Z,9.20
2023-03-26T16:22:16.937Z,8.30
2023-03-26T16:26:33.900Z,8.00
2023-03-26T16:30:15.392Z,7.50
2023-03-26T16:34:18.857Z,11.40
2023-03-26T16:37:59.038Z,10.40
2023-03-26T16:41:56.973Z,9.10
2023-03-26T16:45:48.506Z,10.10
2023-03-26T16:49:28.580Z,7.40
2023-03-26T16:53:16.176Z,7.90
2023-03-26T16:57:07.708Z,9.70
2023-03-26T17:00:53.867Z,11.00
2023-03-26T17:04:45.906Z,8.60
2023-03-26T17:08:35.155Z,9.40
2023-03-26T17:12:23.540Z,10.20
2023-03-26T17:16:22.689Z,12.40
2023-03-26T17:19:51.198Z,14.30
2023-03-26T17:23:26.347Z,13.10
2023-03-26T17:27:31.250Z,16.40
2023-03-26T17:31:53.809Z,12.70
2023-03-26T17:35:18.077Z,13.10
2023-03-26T17:38:53.254Z,12.60
2023-03-26T17:42:21.249Z,10.40
2023-03-26T17:45:46.175Z,7.80
2023-03-26T17:49:03.456Z,9.80
2023-03-26T17:52:48.102Z,7.10
2023-03-26T17:56:24.241Z,8.40
2023-03-26T17:59:38.731Z,11.70
2023-03-26T18:03:06.336Z,11.50
2023-03-26T18:06:51.007Z,8.00
2023-03-26T18:10:44.793Z,7.20
2023-03-26T18:14:02.424Z,8.00
2023-03-26T18:17:20.844Z,17.20
2023-03-26T18:20:37.966Z,29.20
2023-03-26T18:23:37.780Z,52.10
2023-03-26T18:27:19.757Z,60.90
2023-03-26T18:30:44.257Z,53.00
2023-03-26T18:34:20.383Z,47.70
2023-03-26T18:38:05.357Z,35.90
2023-03-26T18:42:00.032Z,39.30
2023-03-26T18:45:06.417Z,35.90
2023-03-26T18:48:50.288Z,26.10
2023-03-26T18:52:43.104Z,35.50
2023-03-26T18:56:14.210Z,61.20
2023-03-26T18:59:57.866Z,66.80
2023-03-26T19:03:17.655Z,67.50
2023-03-26T19:06:57.891Z,42.30
2023-03-26T19:10:29.852Z,41.20
2023-03-26T19:14:31.030Z,41.40
2023-03-26T19:18:34.915Z,56.40
2023-03-26T19:21:47.292Z,71.90
2023-03-26T19:25:17.630Z,70.70
2023-03-26T19:29:12.105Z,75.10
2023-03-26T19:32:37.015Z,104.60
2023-03-26T19:36:21.289Z,107.80
2023-03-26T19:40:14.302Z,91.80
2023-03-26T19:43:46.700Z,93.90
2023-03-26T19:47:46.111Z,109.60
2023-03-26T19:51:10.788Z,105.60
2023-03-26T19:55:01.344Z,118.90
2023-03-26T19:58:41.056Z,116.90
2023-03-26T20:02:33.327Z,71.30
2023-03-26T20:06:33.892Z,110.40
2023-03-26T20:10:01.072Z,80.40
2023-03-26T20:13:56.461Z,62.90
2023-03-26T20:17:28.620Z,66.50
2023-03-26T20:20:53.338Z,51.00
2023-03-26T20:24:29.619Z,44.70
2023-03-26T20:28:19.825Z,73.70
2023-03-26T20:32:08.615Z,41.20
2023-03-26T20:35:36.181Z,69.40
2023-03-26T20:39:08.649Z,55.00
2023-03-26T20:42:43.391Z,50.70
2023-03-26T20:46:11.719Z,83.80
2023-03-26T20:49:20.826Z,51.10
2023-03-26T20:52:46.368Z,33.40
2023-03-26T20:56:17.747Z,30.00
2023-03-26T20:59:23.942Z,27.30
2023-03-26T21:02:27.591Z,31.30
2023-03-26T21:05:40.758Z,56.40
2023-03-26T21:09:30.280Z,59.40
2023-03-26T21:13:22.375Z,60.30
2023-03-26T21:16:30.430Z,56.80
2023-03-26T21:20:08.017Z,47.10
2023-03-26T21:23:50.220Z,37.70
2023-03-26T21:27:33.078Z,43.20
2023-03-26T21:31:02.712Z,37.50
2023-03-26T21:34:23.110Z,29.10
2023-03-26T21:37:30.148Z,27.00
2023-03-26T21:44:18.429Z,23.10
2023-03-26T21:47:14.877Z,23.70
2023-03-26T21:50:22.294Z,21.20
2023-03-26T21:53:54.934Z,23.30
2023-03-26T21:57:40.566Z,21.20
2023-03-26T22:01:41.535Z,21.70
2023-03-26T22:05:07.721Z,22.80
2023-03-26T22:08:59.560Z,21.80
2023-03-26T22:12:17.975Z,20.80
2023-03-26T22:15:58.790Z,17.40
2023-03-26T22:19:18.177Z,16.40
2023-03-26T22:22:58.202Z,22.00
2023-03-26T22:26:16.172Z,20.40
2023-03-26T22:29:55.492Z,17.80
2023-03-26T22:33:15.653Z,9.30
2023-03-26T22:36:46.900Z,20.10
2023-03-26T22:40:18.394Z,18.20
2023-03-26T22:44:19.228Z,19.50
2023-03-26T22:48:09.149Z,25.40
2023-03-26T22:51:18.695Z,18.80
2023-03-26T22:54:43.336Z,18.20
2023-03-26T22:57:44.509Z,20.40
2023-03-26T23:01:31.069Z,18.80
2023-03-26T23:04:59.671Z,15.30
2023-03-26T23:08:28.651Z,21.40
2023-03-26T23:11:57.708Z,22.20
2023-03-26T23:15:47.002Z,24.20
2023-03-26T23:19:13.976Z,17.20
2023-03-26T23:22:49.504Z,18.50
2023-03-26T23:26:37.740Z,18.10
2023-03-26T23:30:06.705Z,12.20
2023-03-26T23:33:29.411Z,20.70
2023-03-26T23:36:47.699Z,23.30
2023-03-26T23:40:11.897Z,17.40
2023-03-26T23:43:55.472Z,18.50
2023-03-26T23:47:26.810Z,14.70
2023-03-26T23:51:03.773Z,16.00
2023-03-26T23:54:56.648Z,17.00
2023-03-26T23:58:27.180Z,15.40
